createdAt,value
2018-09-10T00:00:47.826Z,99.90
2018-09-10T00:03:16.593Z,99.90
2018-09-10T00:05:45.274Z,99.90
2018-09-10T00:08:14.011Z,99.90
2018-09-10T00:10:42.697Z,99.90
2018-09-10T00:13:11.455Z,99.90
2018-09-10T00:15:40.199Z,99.90
2018-09-10T00:18:08.964Z,99.90
2018-09-10T00:20:37.676Z,99.90
2018-09-10T00:23:06.352Z,99.90
2018-09-10T00:25:35.202Z,99.90
2018-09-10T00:28:03.930Z,99.90
2018-09-10T00:30:32.665Z,99.90
2018-09-10T00:33:01.389Z,99.90
2018-09-10T00:35:30.139Z,99.90
2018-09-10T00:37:58.880Z,99.90
2018-09-10T00:40:27.603Z,99.90
2018-09-10T00:42:56.359Z,99.90
2018-09-10T00:45:25.029Z,99.90
2018-09-10T00:47:53.775Z,99.90
2018-09-10T00:50:22.514Z,99.90
2018-09-10T00:52:51.220Z,99.90
2018-09-10T00:55:19.945Z,99.90
2018-09-10T00:57:48.674Z,99.90
2018-09-10T01:00:17.368Z,99.90
2018-09-10T01:02:46.118Z,99.90
2018-09-10T01:05:14.806Z,99.90
2018-09-10T01:07:43.534Z,99.90
2018-09-10T01:10:12.264Z,99.90
2018-09-10T01:12:41.056Z,99.90
2018-09-10T01:15:14.935Z,99.90
2018-09-10T01:17:56.384Z,99.90
2018-09-10T01:20:30.536Z,99.90
2018-09-10T01:23:04.126Z,99.90
2018-09-10T01:25:37.171Z,99.90
2018-09-10T01:28:17.686Z,99.90
2018-09-10T01:30:51.269Z,99.90
2018-09-10T01:33:30.002Z,99.90
2018-09-10T01:35:58.746Z,99.90
2018-09-10T01:38:27.857Z,99.90
2018-09-10T01:40:56.631Z,99.90
2018-09-10T01:43:25.606Z,99.90
2018-09-10T01:45:54.410Z,99.90
2018-09-10T01:48:23.159Z,99.90
2018-09-10T01:50:51.853Z,99.90
2018-09-10T01:53:20.651Z,99.90
2018-09-10T01:55:49.409Z,99.90
2018-09-10T01:58:18.173Z,99.90
2018-09-10T02:00:46.894Z,99.90
2018-09-10T02:03:15.632Z,99.90
2018-09-10T02:05:44.318Z,99.90
2018-09-10T02:08:13.085Z,99.90
2018-09-10T02:10:41.793Z,99.90
2018-09-10T02:13:10.525Z,99.90
2018-09-10T02:15:44.505Z,99.90
2018-09-10T02:18:13.353Z,99.90
2018-09-10T02:20:42.045Z,99.90
2018-09-10T02:23:10.773Z,99.90
2018-09-10T02:25:39.513Z,99.90
2018-09-10T02:28:08.219Z,99.90
2018-09-10T02:30:36.957Z,99.90
2018-09-10T02:33:06.647Z,99.90
2018-09-10T02:35:35.341Z,99.90
2018-09-10T02:38:04.389Z,99.90
2018-09-10T02:40:33.133Z,99.90
2018-09-10T02:43:01.857Z,99.90
2018-09-10T02:45:30.557Z,99.90
2018-09-10T02:47:59.282Z,99.90
2018-09-10T02:50:28.079Z,99.90
2018-09-10T02:52:56.809Z,99.90
2018-09-10T02:55:25.530Z,99.90
2018-09-10T02:57:54.302Z,99.90
2018-09-10T03:00:25.635Z,99.90
2018-09-10T03:02:54.897Z,99.90
2018-09-10T03:05:23.679Z,99.90
2018-09-10T03:07:52.381Z,99.90
2018-09-10T03:10:22.469Z,99.90
2018-09-10T03:12:52.457Z,99.90
2018-09-10T03:15:21.429Z,99.90
2018-09-10T03:17:50.310Z,99.90
2018-09-10T03:20:19.005Z,99.90
2018-09-10T03:22:47.744Z,99.90
2018-09-10T03:25:16.426Z,99.90
2018-09-10T03:27:45.165Z,99.90
2018-09-10T03:30:13.920Z,99.90
2018-09-10T03:32:42.659Z,99.90
2018-09-10T03:35:11.346Z,99.90
2018-09-10T03:37:40.110Z,99.90
2018-09-10T03:40:08.834Z,99.90
2018-09-10T03:42:37.538Z,99.90
2018-09-10T03:45:06.468Z,99.90
2018-09-10T03:47:35.177Z,99.90
2018-09-10T03:50:04.048Z,99.90
2018-09-10T03:52:32.878Z,99.90
2018-09-10T03:55:01.639Z,99.90
2018-09-10T03:57:30.351Z,99.90
2018-09-10T03:59:59.068Z,99.90
2018-09-10T04:02:27.742Z,99.90
2018-09-10T04:04:56.459Z,99.90
2018-09-10T04:07:25.192Z,99.90
2018-09-10T04:09:53.942Z,99.90
2018-09-10T04:12:22.650Z,99.90
2018-09-10T04:14:51.449Z,99.90
2018-09-10T04:17:20.180Z,99.90
2018-09-10T04:19:48.889Z,99.90
2018-09-10T04:22:17.550Z,99.90
2018-09-10T04:24:46.297Z,99.90
2018-09-10T04:27:15.030Z,99.90
2018-09-10T04:29:43.714Z,99.90
2018-09-10T04:32:12.481Z,99.90
2018-09-10T04:34:41.189Z,99.90
2018-09-10T04:37:09.949Z,99.90
2018-09-10T04:39:38.627Z,99.90
2018-09-10T04:42:07.408Z,99.90
2018-09-10T04:44:37.797Z,99.90
2018-09-10T04:47:06.524Z,99.90
2018-09-10T04:49:35.416Z,99.90
2018-09-10T04:52:04.089Z,99.90
2018-09-10T04:54:32.786Z,99.90
2018-09-10T04:57:01.470Z,99.90
2018-09-10T04:59:30.196Z,99.90
2018-09-10T05:01:59.001Z,99.90
2018-09-10T05:04:27.856Z,99.90
2018-09-10T05:06:56.503Z,99.90
2018-09-10T05:09:25.295Z,99.90
2018-09-10T05:11:54.437Z,99.90
2018-09-10T05:14:23.157Z,99.90
2018-09-10T05:16:51.857Z,99.90
2018-09-10T05:19:20.603Z,99.90
2018-09-10T05:21:49.322Z,99.90
2018-09-10T05:24:18.065Z,99.90
2018-09-10T05:26:46.780Z,99.90
2018-09-10T05:29:15.494Z,99.90
2018-09-10T05:31:44.153Z,99.90
2018-09-10T05:34:12.876Z,99.90
2018-09-10T05:36:41.665Z,99.90
2018-09-10T05:39:10.547Z,99.90
2018-09-10T05:41:39.355Z,99.90
2018-09-10T05:44:08.055Z,99.90
2018-09-10T05:46:36.840Z,99.90
2018-09-10T05:49:05.594Z,99.90
2018-09-10T05:51:34.700Z,99.90
2018-09-10T05:54:03.805Z,99.90
2018-09-10T05:56:32.538Z,99.90
2018-09-10T05:59:01.259Z,99.90
2018-09-10T06:01:29.976Z,99.90
2018-09-10T06:03:58.728Z,99.90
2018-09-10T06:06:27.440Z,99.90
2018-09-10T06:08:56.308Z,99.90
2018-09-10T06:11:25.065Z,99.90
2018-09-10T06:13:53.869Z,99.90
2018-09-10T06:16:23.006Z,99.90
2018-09-10T06:18:51.735Z,99.90
2018-09-10T06:21:20.507Z,99.90
2018-09-10T06:23:49.291Z,99.90
2018-09-10T06:26:18.108Z,99.90
2018-09-10T06:28:46.893Z,99.90
2018-09-10T06:31:15.740Z,99.90
2018-09-10T06:33:44.662Z,99.90
2018-09-10T06:36:13.391Z,99.90
2018-09-10T06:38:42.153Z,99.90
2018-09-10T06:41:10.936Z,99.90
2018-09-10T06:43:39.698Z,99.90
2018-09-10T06:46:46.453Z,99.90
2018-09-10T06:49:30.452Z,99.90
2018-09-10T06:52:31.962Z,99.90
2018-09-10T07:00:21.632Z,99.90
2018-09-10T07:02:57.294Z,99.90
2018-09-10T07:05:26.973Z,99.90
2018-09-10T07:07:56.633Z,99.90
2018-09-10T07:11:03.252Z,99.90
2018-09-10T07:17:02.992Z,99.90
2018-09-10T07:45:27.991Z,99.90
2018-09-10T07:47:57.233Z,99.90
2018-09-10T07:50:26.086Z,99.90
2018-09-10T07:52:54.919Z,99.90
2018-09-10T07:55:24.038Z,99.90
2018-09-10T07:58:21.320Z,99.90
2018-09-10T08:03:55.090Z,99.00
2018-09-10T08:06:24.373Z,99.10
2018-09-10T08:08:53.682Z,98.40
2018-09-10T08:11:23.063Z,98.20
2018-09-10T08:13:52.037Z,97.90
2018-09-10T08:16:20.885Z,97.00
2018-09-10T08:18:49.715Z,96.40
2018-09-10T08:21:18.579Z,96.00
2018-09-10T08:23:47.354Z,95.30
2018-09-10T08:26:16.162Z,95.30
2018-09-10T08:28:44.920Z,95.00
2018-09-10T08:31:13.693Z,94.30
2018-09-10T08:33:42.471Z,93.00
2018-09-10T08:36:11.258Z,92.80
2018-09-10T08:38:40.024Z,93.00
2018-09-10T08:41:08.840Z,91.90
2018-09-10T08:43:37.535Z,91.60
2018-09-10T08:46:06.775Z,90.70
2018-09-10T08:48:35.609Z,89.80
2018-09-10T08:51:04.417Z,90.20
2018-09-10T08:53:33.136Z,88.10
2018-09-10T08:56:02.159Z,85.90
2018-09-10T08:58:30.813Z,85.20
2018-09-10T09:00:59.543Z,85.40
2018-09-10T09:03:29.371Z,83.50
2018-09-10T09:05:59.088Z,79.20
2018-09-10T09:08:28.535Z,77.60
2018-09-10T09:10:57.639Z,75.40
2018-09-10T09:13:27.293Z,69.10
2018-09-10T09:15:56.180Z,64.40
2018-09-10T09:18:24.899Z,59.50
2018-09-10T09:20:53.646Z,57.30
2018-09-10T09:23:23.846Z,56.30
2018-09-10T09:25:52.638Z,55.20
2018-09-10T09:28:21.707Z,50.50
2018-09-10T09:30:50.776Z,47.70
2018-09-10T09:33:20.472Z,45.20
2018-09-10T09:35:54.416Z,44.20
2018-09-10T09:38:28.259Z,45.80
2018-09-10T09:43:04.562Z,44.80
2018-09-10T09:45:38.613Z,46.10
2018-09-10T09:48:07.410Z,45.80
2018-09-10T09:50:36.244Z,44.30
2018-09-10T09:53:05.014Z,40.70
2018-09-10T09:55:33.878Z,39.40
2018-09-10T09:58:02.682Z,39.90
2018-09-10T10:00:36.801Z,41.10
2018-09-10T10:03:10.929Z,41.70
2018-09-10T10:05:39.781Z,40.00
2018-09-10T10:08:09.743Z,39.10
2018-09-10T10:10:38.833Z,39.20
2018-09-10T10:13:07.598Z,38.30
2018-09-10T10:15:36.484Z,39.80
2018-09-10T10:18:05.410Z,38.70
2018-09-10T10:20:34.238Z,37.80
2018-09-10T10:23:03.126Z,34.00
2018-09-10T10:25:32.093Z,31.70
2018-09-10T10:28:00.876Z,31.70
2018-09-10T10:30:29.826Z,30.00
2018-09-10T10:32:58.535Z,27.90
2018-09-10T10:35:30.796Z,26.80
2018-09-10T10:37:59.573Z,26.10
2018-09-10T10:40:28.906Z,24.20
2018-09-10T10:42:57.673Z,24.30
2018-09-10T10:45:26.518Z,23.60
2018-09-10T10:47:55.778Z,24.40
2018-09-10T10:50:24.699Z,23.80
2018-09-10T10:52:53.625Z,23.00
2018-09-10T10:55:23.602Z,20.00
2018-09-10T10:57:53.696Z,21.20
2018-09-10T11:00:22.746Z,22.20
2018-09-10T11:02:51.559Z,22.10
2018-09-10T11:05:20.421Z,21.30
2018-09-10T11:07:49.237Z,21.50
2018-09-10T11:10:18.099Z,19.70
2018-09-10T11:12:46.957Z,18.90
2018-09-10T11:15:17.543Z,19.40
2018-09-10T11:17:46.472Z,20.20
2018-09-10T11:20:15.396Z,19.50
2018-09-10T11:22:44.090Z,20.90
2018-09-10T11:25:12.842Z,22.50
2018-09-10T11:27:41.647Z,23.00
2018-09-10T11:30:10.529Z,22.50
2018-09-10T11:32:39.637Z,23.70
2018-09-10T11:35:08.570Z,23.90
2018-09-10T11:37:37.479Z,25.70
2018-09-10T11:40:06.373Z,26.40
2018-09-10T11:42:35.208Z,26.40
2018-09-10T11:45:04.199Z,26.60
2018-09-10T11:47:33.045Z,27.20
2018-09-10T11:50:01.872Z,28.40
2018-09-10T11:52:30.718Z,29.40
2018-09-10T11:54:59.532Z,30.00
2018-09-10T11:57:28.476Z,30.50
2018-09-10T11:59:57.453Z,32.20
2018-09-10T12:02:26.346Z,31.40
2018-09-10T12:04:55.113Z,33.50
2018-09-10T12:07:23.891Z,31.50
2018-09-10T12:09:52.817Z,31.80
2018-09-10T12:12:21.620Z,32.20
2018-09-10T12:14:50.404Z,33.20
2018-09-10T12:17:19.288Z,33.80
2018-09-10T12:19:48.278Z,34.90
2018-09-10T12:22:17.268Z,34.60
2018-09-10T12:24:47.090Z,34.50
2018-09-10T12:27:15.925Z,35.30
2018-09-10T12:29:45.302Z,34.70
2018-09-10T12:32:14.203Z,34.50
2018-09-10T12:34:43.046Z,33.80
2018-09-10T12:37:11.729Z,33.40
2018-09-10T12:39:40.665Z,33.00
2018-09-10T12:42:09.430Z,33.10
2018-09-10T12:44:38.221Z,33.50
2018-09-10T12:47:07.254Z,34.30
2018-09-10T12:49:36.681Z,34.00
2018-09-10T12:52:09.058Z,34.90
2018-09-10T12:54:41.991Z,34.20
2018-09-10T12:57:13.445Z,33.90
2018-09-10T12:59:45.571Z,33.10
2018-09-10T13:02:16.800Z,33.80
2018-09-10T13:04:49.368Z,32.90
2018-09-10T13:07:20.053Z,32.90
2018-09-10T13:09:52.187Z,33.10
2018-09-10T13:12:25.045Z,32.30
2018-09-10T13:14:53.932Z,32.50
2018-09-10T13:17:22.718Z,32.30
2018-09-10T13:19:51.609Z,31.90
2018-09-10T13:22:20.438Z,32.10
2018-09-10T13:24:49.221Z,33.30
2018-09-10T13:27:18.170Z,33.80
2018-09-10T13:29:47.035Z,33.80
2018-09-10T13:32:16.310Z,33.20
2018-09-10T13:34:45.105Z,33.00
2018-09-10T13:37:15.179Z,33.10
2018-09-10T13:39:44.037Z,33.00
2018-09-10T13:42:12.816Z,32.60
2018-09-10T13:44:43.148Z,33.10
2018-09-10T13:47:11.975Z,32.50
2018-09-10T13:49:40.855Z,32.00
2018-09-10T13:52:09.717Z,32.50
2018-09-10T13:54:38.763Z,33.20
2018-09-10T13:57:07.521Z,34.00
2018-09-10T13:59:36.286Z,32.90
2018-09-10T14:02:22.096Z,32.30
2018-09-10T14:04:50.894Z,33.50
2018-09-10T14:07:21.283Z,31.00
2018-09-10T14:09:50.060Z,30.70
2018-09-10T14:12:18.885Z,29.70
2018-09-10T14:14:47.741Z,28.40
2018-09-10T14:17:16.625Z,28.70
2018-09-10T14:19:45.879Z,29.00
2018-09-10T14:22:14.896Z,29.40
2018-09-10T14:24:43.634Z,28.20
2018-09-10T14:27:12.692Z,28.60
2018-09-10T14:29:41.597Z,28.90
2018-09-10T14:32:10.730Z,29.30
2018-09-10T14:34:39.705Z,28.80
2018-09-10T14:37:08.498Z,27.30
2018-09-10T14:39:37.969Z,27.60
2018-09-10T14:42:07.729Z,28.70
2018-09-10T14:44:36.695Z,28.30
2018-09-10T14:47:06.125Z,27.80
2018-09-10T14:49:34.931Z,27.30
2018-09-10T14:52:03.909Z,27.70
2018-09-10T14:54:32.872Z,27.90
2018-09-10T14:57:01.820Z,28.30
2018-09-10T14:59:30.662Z,28.30
2018-09-10T15:01:59.474Z,27.90
2018-09-10T15:04:28.803Z,28.20
2018-09-10T15:06:57.705Z,28.30
2018-09-10T15:09:26.557Z,28.80
2018-09-10T15:11:55.434Z,28.40
2018-09-10T15:14:24.378Z,28.70
2018-09-10T15:16:53.318Z,29.00
2018-09-10T15:19:22.627Z,28.90
2018-09-10T15:21:51.517Z,28.70
2018-09-10T15:24:20.260Z,28.70
2018-09-10T15:26:49.039Z,29.30
2018-09-10T15:29:17.890Z,29.30
2018-09-10T15:31:46.601Z,28.70
2018-09-10T15:34:15.547Z,28.20
2018-09-10T15:36:44.396Z,28.00
2018-09-10T15:39:13.312Z,28.20
2018-09-10T15:41:42.075Z,28.90
2018-09-10T15:44:10.805Z,27.80
2018-09-10T15:46:39.886Z,28.20
2018-09-10T15:49:08.826Z,28.50
2018-09-10T15:51:37.524Z,28.40
2018-09-10T15:54:06.322Z,28.00
2018-09-10T15:56:35.507Z,28.10
2018-09-10T15:59:04.361Z,28.10
2018-09-10T16:01:33.173Z,28.10
2018-09-10T16:04:01.894Z,28.00
2018-09-10T16:06:30.806Z,28.40
2018-09-10T16:08:59.602Z,28.70
2018-09-10T16:11:30.431Z,29.30
2018-09-10T16:13:59.246Z,29.50
2018-09-10T16:16:28.011Z,29.60
2018-09-10T16:18:56.727Z,29.80
2018-09-10T16:21:25.484Z,30.10
2018-09-10T16:23:54.270Z,30.10
2018-09-10T16:26:22.936Z,30.20
2018-09-10T16:28:51.785Z,30.60
2018-09-10T16:31:20.569Z,30.70
2018-09-10T16:33:49.353Z,30.60
2018-09-10T16:36:18.027Z,31.00
2018-09-10T16:38:46.777Z,31.00
2018-09-10T16:41:15.679Z,31.30
2018-09-10T16:43:44.453Z,31.00
2018-09-10T16:46:13.295Z,31.80
2018-09-10T16:48:42.147Z,31.70
2018-09-10T16:51:10.883Z,32.60
2018-09-10T16:53:39.661Z,32.50
2018-09-10T16:56:08.481Z,32.50
2018-09-10T16:58:37.242Z,32.70
2018-09-10T17:01:05.951Z,33.20
2018-09-10T17:03:34.769Z,33.80
2018-09-10T17:06:03.512Z,33.50
2018-09-10T17:08:32.416Z,33.20
2018-09-10T17:11:01.170Z,33.70
2018-09-10T17:13:29.897Z,33.70
2018-09-10T17:15:58.693Z,33.70
2018-09-10T17:18:27.463Z,34.00
2018-09-10T17:20:56.179Z,34.30
2018-09-10T17:23:24.915Z,34.60
2018-09-10T17:25:55.763Z,34.90
2018-09-10T17:28:24.528Z,34.80
2018-09-10T17:30:53.452Z,34.80
2018-09-10T17:33:22.157Z,35.40
2018-09-10T17:35:50.913Z,35.40
2018-09-10T17:38:19.614Z,35.50
2018-09-10T17:40:48.353Z,35.90
2018-09-10T17:43:17.125Z,36.30
2018-09-10T17:45:45.907Z,36.30
2018-09-10T17:48:14.588Z,36.50
2018-09-10T17:50:43.371Z,36.80
2018-09-10T17:53:12.157Z,37.10
2018-09-10T17:55:40.936Z,37.50
2018-09-10T17:58:09.676Z,37.60
2018-09-10T18:00:41.631Z,37.70
2018-09-10T18:03:11.858Z,38.00
2018-09-10T18:05:40.738Z,39.10
2018-09-10T18:08:09.543Z,39.40
2018-09-10T18:10:38.415Z,40.00
2018-09-10T18:13:07.288Z,40.10
2018-09-10T18:15:36.138Z,40.70
2018-09-10T18:18:05.106Z,41.30
2018-09-10T18:20:34.401Z,42.10
2018-09-10T18:23:03.080Z,42.90
2018-09-10T18:25:31.796Z,43.70
2018-09-10T18:28:00.521Z,45.40
2018-09-10T18:30:29.190Z,46.70
2018-09-10T18:32:58.043Z,47.80
2018-09-10T18:35:26.813Z,48.00
2018-09-10T18:37:55.627Z,48.60
2018-09-10T18:40:24.488Z,49.00
2018-09-10T18:42:53.385Z,49.50
2018-09-10T18:45:22.232Z,49.90
2018-09-10T18:47:50.914Z,50.20
2018-09-10T18:50:19.633Z,50.70
2018-09-10T18:52:48.393Z,51.30
2018-09-10T18:55:17.136Z,51.50
2018-09-10T18:57:45.925Z,52.20
2018-09-10T19:00:14.930Z,53.00
2018-09-10T19:02:43.686Z,52.90
2018-09-10T19:05:12.440Z,52.70
2018-09-10T19:07:41.164Z,53.70
2018-09-10T19:10:10.290Z,54.10
2018-09-10T19:12:39.249Z,54.60
2018-09-10T19:15:08.427Z,55.00
2018-09-10T19:17:37.192Z,55.80
2018-09-10T19:20:06.074Z,56.40
2018-09-10T19:22:34.800Z,57.20
2018-09-10T19:25:03.588Z,57.40
2018-09-10T19:27:32.315Z,58.40
2018-09-10T19:30:01.108Z,58.90
2018-09-10T19:32:29.858Z,59.60
2018-09-10T19:34:58.618Z,60.10
2018-09-10T19:37:27.397Z,60.60
2018-09-10T19:39:56.213Z,59.70
2018-09-10T19:42:25.022Z,60.40
2018-09-10T19:44:53.766Z,61.30
2018-09-10T19:47:22.520Z,62.10
2018-09-10T19:49:51.262Z,62.70
2018-09-10T19:52:19.998Z,63.20
2018-09-10T19:54:48.766Z,63.70
2018-09-10T19:57:17.465Z,63.70
2018-09-10T19:59:46.205Z,64.60
2018-09-10T20:02:15.036Z,65.50
2018-09-10T20:04:48.392Z,66.60
2018-09-10T20:07:22.666Z,66.50
2018-09-10T20:09:56.427Z,67.40
2018-09-10T20:12:29.516Z,67.50
2018-09-10T20:14:59.854Z,68.60
2018-09-10T20:17:33.888Z,70.00
2018-09-10T20:20:06.519Z,71.40
2018-09-10T20:22:38.187Z,72.80
2018-09-10T20:25:14.593Z,74.30
2018-09-10T20:27:46.909Z,74.40
2018-09-10T20:30:18.807Z,75.20
2018-09-10T20:32:51.806Z,74.90
2018-09-10T20:35:24.865Z,76.20
2018-09-10T20:37:58.206Z,75.50
2018-09-10T20:40:32.366Z,74.60
2018-09-10T20:43:05.210Z,76.60
2018-09-10T20:45:38.407Z,77.30
2018-09-10T20:48:11.129Z,77.20
2018-09-10T20:50:44.624Z,78.10
2018-09-10T20:53:18.046Z,79.50
2018-09-10T20:55:51.613Z,79.90
2018-09-10T20:58:24.685Z,81.20
2018-09-10T21:00:57.697Z,81.30
2018-09-10T21:03:32.513Z,81.00
2018-09-10T21:06:06.825Z,82.70
2018-09-10T21:08:47.506Z,83.20
2018-09-10T21:11:28.895Z,82.30
2018-09-10T21:14:02.166Z,83.60
2018-09-10T21:16:36.119Z,85.20
2018-09-10T21:19:10.922Z,85.80
2018-09-10T21:21:44.803Z,86.70
2018-09-10T21:24:19.064Z,87.10
2018-09-10T21:26:52.909Z,86.50
2018-09-10T21:29:25.968Z,87.00
2018-09-10T21:31:58.887Z,87.40
2018-09-10T21:34:32.509Z,88.00
2018-09-10T21:37:06.493Z,88.10
2018-09-10T21:39:39.063Z,88.40
2018-09-10T21:42:11.949Z,89.60
2018-09-10T21:44:45.537Z,89.50
2018-09-10T21:47:19.892Z,90.00
2018-09-10T21:49:54.560Z,90.20
2018-09-10T21:52:28.905Z,90.70
2018-09-10T21:55:01.920Z,91.00
2018-09-10T21:57:35.779Z,90.90
2018-09-10T22:00:10.311Z,91.20
2018-09-10T22:02:43.365Z,91.10
2018-09-10T22:05:16.652Z,91.50
2018-09-10T22:07:49.779Z,91.70
2018-09-10T22:10:31.002Z,92.00
2018-09-10T22:13:04.089Z,92.30
2018-09-10T22:15:37.196Z,92.90
2018-09-10T22:18:11.939Z,93.10
2018-09-10T22:20:46.338Z,92.80
2018-09-10T22:23:19.067Z,93.30
2018-09-10T22:25:54.097Z,93.80
2018-09-10T22:28:27.104Z,93.60
2018-09-10T22:31:00.996Z,94.10
2018-09-10T22:33:35.189Z,94.40
2018-09-10T22:36:10.290Z,94.50
2018-09-10T22:38:44.130Z,94.70
2018-09-10T22:41:17.113Z,94.60
2018-09-10T22:43:50.284Z,95.00
2018-09-10T22:46:24.622Z,95.20
2018-09-10T22:48:57.420Z,95.00
2018-09-10T22:51:31.243Z,95.40
2018-09-10T22:54:04.516Z,95.90
2018-09-10T22:56:37.527Z,95.60
2018-09-10T22:59:12.188Z,95.80
2018-09-10T23:01:45.201Z,96.10
2018-09-10T23:04:19.047Z,96.60
2018-09-10T23:06:53.480Z,96.40
2018-09-10T23:09:27.575Z,96.40
2018-09-10T23:12:00.481Z,96.50
2018-09-10T23:14:33.508Z,96.40
2018-09-10T23:17:06.565Z,96.60
2018-09-10T23:19:40.944Z,96.90
2018-09-10T23:22:14.854Z,97.00
2018-09-10T23:24:48.791Z,97.30
2018-09-10T23:27:21.442Z,97.60
2018-09-10T23:29:54.399Z,97.30
2018-09-10T23:32:28.613Z,97.50
2018-09-10T23:35:02.785Z,97.60
2018-09-10T23:37:37.561Z,97.70
2018-09-10T23:40:10.469Z,97.70
2018-09-10T23:42:43.467Z,97.60
2018-09-10T23:45:16.064Z,98.20
2018-09-10T23:47:50.096Z,98.00
2018-09-10T23:50:24.968Z,98.20
2018-09-10T23:53:01.086Z,98.40
2018-09-10T23:55:34.788Z,98.30
2018-09-10T23:58:07.878Z,98.60
